TFM - Tactical Decision Aid
ID: Runway Winds: CIG/VIS Threshold:

KDNL - Augusta/Daniel Fld, GA, US

Updated at: 1730 UTC 19 Sep 2018
Latest TAF at: 1433 UTC 19 Sep 2018

TAF Board

Time1653Z 19/18Z 19/19Z 19/20Z 19/21Z 19/22Z 19/23Z 20/00Z 20/01Z 20/02Z 20/03Z 20/04Z 20/05Z 20/06Z>>
Type OBS PRVL PRVL PRVL PRVL PRVL PRVL PRVL PRVL PRVL PRVL PRVL PRVL PRVL
VIS 10 >6 >6 >6 >6 >6 >6 >6 >6 >6 >6 >6 >6 >6
CIG -- -- -- -- -- -- -- -- -- -- -- -- -- --
Cover CLR SCT SCT SCT SCT SCT SCT SKC SKC SKC SKC SKC SKC SKC
FltCat VFR VFR VFR VFR VFR VFR VFR VFR VFR VFR VFR VFR VFR VFR
WX -- -- -- -- -- -- -- -- -- -- -- -- -- --
WDir VRB 30 30 30 30 30 30 VRB VRB VRB VRB VRB VRB VRB
WSpd 6 6 6 6 6 6 6 3 3 3 3 3 3 3
WGst -- -- -- -- -- -- -- -- -- -- -- -- -- --

TDA Impact Legend

  None Marginal Slight Moderate High
Visibility (sm) >5 3≤X≤5 2≤X<3 1≤X<2 <1
Ceiling (100 ft) >30 10≤X≤30 8≤X<10 5≤X<8 <5
Wind Speed (kt) <15 15≤X<25 25≤X<30 ≥30
Wind Gust (kt) <15 15≤X<25 25≤X<35 ≥35
Weather No Wx Reported VCTS -TS,-FZRA TS,FZRA +TS,+FZRA
TAF
KDNL 191433Z 1915/2012 03006KT P6SM SCT050
  FM200000 VRB03KT P6SM SKC


METAR
KDNL 191653Z AUTO VRB06KT 10SM CLR 33/19 A3002 RMK AO2 SLP157 T03330194
KDNL 191553Z AUTO VRB04KT 10SM CLR 32/19 A3002 RMK AO2 SLP159 T03170194
KDNL 191453Z AUTO 02005KT 10SM CLR 30/20 A3003 RMK AO2 SLP161 T03000200 53014

Radar Display
Forecast Discussion